sensor_id;sensor_type;location;lat;lon;timestamp;P1;durP1;ratioP1;P2;durP2;ratioP2
73585;SDS011;61865;50.232;18.614;2022-12-18T00:01:31;42.38;;;21.60;;
73585;SDS011;61865;50.232;18.614;2022-12-18T00:03:54;44.20;;;21.30;;
73585;SDS011;61865;50.232;18.614;2022-12-18T00:06:18;53.85;;;23.73;;
73585;SDS011;61865;50.232;18.614;2022-12-18T00:08:41;59.72;;;24.63;;
73585;SDS011;61865;50.232;18.614;2022-12-18T00:11:03;45.97;;;21.95;;
73585;SDS011;61865;50.232;18.614;2022-12-18T00:13:26;47.20;;;22.42;;
73585;SDS011;61865;50.232;18.614;2022-12-18T00:15:48;56.97;;;22.15;;
73585;SDS011;61865;50.232;18.614;2022-12-18T00:18:10;43.75;;;22.77;;
73585;SDS011;61865;50.232;18.614;2022-12-18T00:20:35;59.22;;;23.38;;
73585;SDS011;61865;50.232;18.614;2022-12-18T00:22:59;48.13;;;22.27;;
73585;SDS011;61865;50.232;18.614;2022-12-18T00:25:21;43.13;;;22.73;;
73585;SDS011;61865;50.232;18.614;2022-12-18T00:27:43;54.88;;;25.88;;
73585;SDS011;61865;50.232;18.614;2022-12-18T00:30:05;44.50;;;19.85;;
73585;SDS011;61865;50.232;18.614;2022-12-18T00:32:28;53.97;;;22.50;;
73585;SDS011;61865;50.232;18.614;2022-12-18T00:34:50;57.30;;;23.90;;
73585;SDS011;61865;50.232;18.614;2022-12-18T00:37:12;47.50;;;22.35;;
73585;SDS011;61865;50.232;18.614;2022-12-18T00:39:35;47.20;;;22.00;;
73585;SDS011;61865;50.232;18.614;2022-12-18T00:41:57;41.45;;;20.85;;
73585;SDS011;61865;50.232;18.614;2022-12-18T00:44:50;38.90;;;20.65;;
73585;SDS011;61865;50.232;18.614;2022-12-18T00:47:12;49.38;;;23.45;;
73585;SDS011;61865;50.232;18.614;2022-12-18T00:49:34;47.55;;;20.40;;
73585;SDS011;61865;50.232;18.614;2022-12-18T00:51:56;42.88;;;21.52;;
73585;SDS011;61865;50.232;18.614;2022-12-18T00:54:18;51.47;;;24.58;;
73585;SDS011;61865;50.232;18.614;2022-12-18T00:56:41;44.67;;;20.67;;
73585;SDS011;61865;50.232;18.614;2022-12-18T00:59:03;49.35;;;21.83;;
73585;SDS011;61865;50.232;18.614;2022-12-18T01:01:26;46.40;;;21.63;;
73585;SDS011;61865;50.232;18.614;2022-12-18T01:03:48;54.25;;;26.02;;
73585;SDS011;61865;50.232;18.614;2022-12-18T01:06:11;44.88;;;22.02;;
73585;SDS011;61865;50.232;18.614;2022-12-18T01:08:35;38.92;;;19.40;;
73585;SDS011;61865;50.232;18.614;2022-12-18T01:10:57;46.42;;;20.95;;
73585;SDS011;61865;50.232;18.614;2022-12-18T01:13:20;40.85;;;21.00;;
73585;SDS011;61865;50.232;18.614;2022-12-18T01:15:47;47.42;;;21.38;;
73585;SDS011;61865;50.232;18.614;2022-12-18T01:18:09;46.85;;;21.58;;
73585;SDS011;61865;50.232;18.614;2022-12-18T01:20:31;47.50;;;22.48;;
73585;SDS011;61865;50.232;18.614;2022-12-18T01:22:53;43.30;;;20.13;;
73585;SDS011;61865;50.232;18.614;2022-12-18T01:25:15;44.10;;;19.17;;
73585;SDS011;61865;50.232;18.614;2022-12-18T01:27:37;51.63;;;22.83;;
73585;SDS011;61865;50.232;18.614;2022-12-18T01:30:01;45.45;;;20.00;;
73585;SDS011;61865;50.232;18.614;2022-12-18T01:32:23;41.53;;;20.30;;
73585;SDS011;61865;50.232;18.614;2022-12-18T01:34:45;41.08;;;21.38;;
73585;SDS011;61865;50.232;18.614;2022-12-18T01:37:07;49.13;;;21.85;;
73585;SDS011;61865;50.232;18.614;2022-12-18T01:39:29;42.42;;;21.15;;
73585;SDS011;61865;50.232;18.614;2022-12-18T01:41:52;48.28;;;22.38;;
73585;SDS011;61865;50.232;18.614;2022-12-18T01:44:49;41.90;;;20.35;;
73585;SDS011;61865;50.232;18.614;2022-12-18T01:47:18;42.83;;;20.17;;
73585;SDS011;61865;50.232;18.614;2022-12-18T01:49:45;44.90;;;19.80;;
73585;SDS011;61865;50.232;18.614;2022-12-18T01:52:07;46.97;;;19.85;;
73585;SDS011;61865;50.232;18.614;2022-12-18T01:54:29;49.72;;;21.70;;
73585;SDS011;61865;50.232;18.614;2022-12-18T01:56:51;51.05;;;22.60;;
73585;SDS011;61865;50.232;18.614;2022-12-18T01:59:13;42.38;;;20.17;;
73585;SDS011;61865;50.232;18.614;2022-12-18T02:01:35;43.58;;;20.15;;
73585;SDS011;61865;50.232;18.614;2022-12-18T02:06:47;39.63;;;21.00;;
73585;SDS011;61865;50.232;18.614;2022-12-18T02:09:13;40.30;;;20.42;;
73585;SDS011;61865;50.232;18.614;2022-12-18T02:11:40;41.95;;;19.45;;
73585;SDS011;61865;50.232;18.614;2022-12-18T02:14:11;40.47;;;21.10;;
73585;SDS011;61865;50.232;18.614;2022-12-18T02:16:45;42.05;;;20.20;;
73585;SDS011;61865;50.232;18.614;2022-12-18T02:19:16;45.35;;;21.70;;
73585;SDS011;61865;50.232;18.614;2022-12-18T02:21:57;41.13;;;20.13;;
73585;SDS011;61865;50.232;18.614;2022-12-18T02:24:33;52.50;;;22.67;;
73585;SDS011;61865;50.232;18.614;2022-12-18T02:27:04;50.08;;;22.95;;
73585;SDS011;61865;50.232;18.614;2022-12-18T02:29:29;44.75;;;22.27;;
73585;SDS011;61865;50.232;18.614;2022-12-18T02:31:56;48.65;;;22.05;;
73585;SDS011;61865;50.232;18.614;2022-12-18T02:34:20;43.80;;;21.92;;
73585;SDS011;61865;50.232;18.614;2022-12-18T02:36:45;51.92;;;23.02;;
73585;SDS011;61865;50.232;18.614;2022-12-18T02:39:09;51.85;;;23.52;;
73585;SDS011;61865;50.232;18.614;2022-12-18T02:41:33;49.78;;;23.73;;
73585;SDS011;61865;50.232;18.614;2022-12-18T02:44:00;52.97;;;23.13;;
73585;SDS011;61865;50.232;18.614;2022-12-18T02:46:29;53.97;;;23.02;;
73585;SDS011;61865;50.232;18.614;2022-12-18T02:48:54;53.38;;;24.77;;
73585;SDS011;61865;50.232;18.614;2022-12-18T02:51:24;55.08;;;24.33;;
73585;SDS011;61865;50.232;18.614;2022-12-18T02:53:51;49.15;;;22.88;;
73585;SDS011;61865;50.232;18.614;2022-12-18T02:56:20;50.30;;;23.98;;
73585;SDS011;61865;50.232;18.614;2022-12-18T02:58:48;50.05;;;24.92;;
73585;SDS011;61865;50.232;18.614;2022-12-18T03:01:21;46.95;;;23.38;;
73585;SDS011;61865;50.232;18.614;2022-12-18T03:03:50;52.90;;;23.60;;
73585;SDS011;61865;50.232;18.614;2022-12-18T03:06:18;46.65;;;22.17;;
73585;SDS011;61865;50.232;18.614;2022-12-18T03:08:46;50.67;;;24.40;;
73585;SDS011;61865;50.232;18.614;2022-12-18T03:11:12;49.25;;;22.02;;
73585;SDS011;61865;50.232;18.614;2022-12-18T03:13:36;48.95;;;23.27;;
73585;SDS011;61865;50.232;18.614;2022-12-18T03:16:00;53.10;;;24.48;;
73585;SDS011;61865;50.232;18.614;2022-12-18T03:18:26;50.42;;;22.85;;
73585;SDS011;61865;50.232;18.614;2022-12-18T03:20:51;45.65;;;22.20;;
73585;SDS011;61865;50.232;18.614;2022-12-18T03:23:17;47.65;;;22.67;;
73585;SDS011;61865;50.232;18.614;2022-12-18T03:25:43;52.17;;;21.58;;
73585;SDS011;61865;50.232;18.614;2022-12-18T03:28:06;53.08;;;24.40;;
73585;SDS011;61865;50.232;18.614;2022-12-18T03:30:31;46.80;;;23.98;;
73585;SDS011;61865;50.232;18.614;2022-12-18T03:32:58;49.92;;;22.60;;
73585;SDS011;61865;50.232;18.614;2022-12-18T03:35:29;55.83;;;24.48;;
73585;SDS011;61865;50.232;18.614;2022-12-18T03:37:52;53.08;;;22.73;;
73585;SDS011;61865;50.232;18.614;2022-12-18T03:40:14;50.08;;;24.13;;
73585;SDS011;61865;50.232;18.614;2022-12-18T03:42:38;50.17;;;23.45;;
73585;SDS011;61865;50.232;18.614;2022-12-18T03:45:07;48.03;;;23.52;;
73585;SDS011;61865;50.232;18.614;2022-12-18T03:47:34;53.67;;;22.75;;
73585;SDS011;61865;50.232;18.614;2022-12-18T03:50:03;56.90;;;23.48;;
73585;SDS011;61865;50.232;18.614;2022-12-18T03:52:33;55.00;;;22.95;;
73585;SDS011;61865;50.232;18.614;2022-12-18T03:54:59;63.60;;;24.67;;
73585;SDS011;61865;50.232;18.614;2022-12-18T03:57:23;57.47;;;23.48;;
73585;SDS011;61865;50.232;18.614;2022-12-18T03:59:49;43.88;;;23.00;;
73585;SDS011;61865;50.232;18.614;2022-12-18T04:02:15;57.42;;;23.80;;
73585;SDS011;61865;50.232;18.614;2022-12-18T04:04:38;57.50;;;24.58;;
73585;SDS011;61865;50.232;18.614;2022-12-18T04:07:01;50.80;;;23.25;;
73585;SDS011;61865;50.232;18.614;2022-12-18T04:09:25;53.63;;;24.38;;
73585;SDS011;61865;50.232;18.614;2022-12-18T04:11:48;58.00;;;24.38;;
73585;SDS011;61865;50.232;18.614;2022-12-18T04:14:10;57.85;;;24.20;;
73585;SDS011;61865;50.232;18.614;2022-12-18T04:16:32;54.58;;;25.25;;
73585;SDS011;61865;50.232;18.614;2022-12-18T04:18:54;56.10;;;24.77;;
73585;SDS011;61865;50.232;18.614;2022-12-18T04:21:15;56.38;;;25.27;;
73585;SDS011;61865;50.232;18.614;2022-12-18T04:23:37;52.53;;;25.23;;
73585;SDS011;61865;50.232;18.614;2022-12-18T04:26:00;52.05;;;24.92;;
73585;SDS011;61865;50.232;18.614;2022-12-18T04:28:22;54.00;;;24.48;;
73585;SDS011;61865;50.232;18.614;2022-12-18T04:30:44;62.58;;;26.08;;
73585;SDS011;61865;50.232;18.614;2022-12-18T04:33:08;60.38;;;26.33;;
73585;SDS011;61865;50.232;18.614;2022-12-18T04:35:30;57.65;;;24.73;;
73585;SDS011;61865;50.232;18.614;2022-12-18T04:37:52;59.45;;;25.02;;
73585;SDS011;61865;50.232;18.614;2022-12-18T04:40:13;55.67;;;26.15;;
73585;SDS011;61865;50.232;18.614;2022-12-18T04:42:37;53.63;;;24.08;;
73585;SDS011;61865;50.232;18.614;2022-12-18T04:45:00;55.78;;;24.70;;
73585;SDS011;61865;50.232;18.614;2022-12-18T04:47:22;47.55;;;23.30;;
73585;SDS011;61865;50.232;18.614;2022-12-18T04:49:44;53.92;;;23.17;;
73585;SDS011;61865;50.232;18.614;2022-12-18T04:52:06;61.13;;;24.70;;
73585;SDS011;61865;50.232;18.614;2022-12-18T04:54:28;49.30;;;22.73;;
73585;SDS011;61865;50.232;18.614;2022-12-18T04:56:50;46.00;;;21.75;;
73585;SDS011;61865;50.232;18.614;2022-12-18T04:59:13;58.78;;;22.90;;
73585;SDS011;61865;50.232;18.614;2022-12-18T05:01:35;46.22;;;22.80;;
73585;SDS011;61865;50.232;18.614;2022-12-18T05:03:56;52.35;;;20.40;;
73585;SDS011;61865;50.232;18.614;2022-12-18T05:06:18;49.83;;;23.00;;
73585;SDS011;61865;50.232;18.614;2022-12-18T05:08:40;51.53;;;22.20;;
73585;SDS011;61865;50.232;18.614;2022-12-18T05:11:03;50.30;;;21.80;;
73585;SDS011;61865;50.232;18.614;2022-12-18T05:13:26;55.08;;;24.23;;
73585;SDS011;61865;50.232;18.614;2022-12-18T05:15:52;46.72;;;21.27;;
73585;SDS011;61865;50.232;18.614;2022-12-18T05:18:14;51.63;;;22.60;;
73585;SDS011;61865;50.232;18.614;2022-12-18T05:20:36;46.15;;;19.25;;
73585;SDS011;61865;50.232;18.614;2022-12-18T05:22:57;53.20;;;21.67;;
73585;SDS011;61865;50.232;18.614;2022-12-18T05:25:19;54.00;;;22.42;;
73585;SDS011;61865;50.232;18.614;2022-12-18T05:27:42;43.10;;;19.90;;
73585;SDS011;61865;50.232;18.614;2022-12-18T05:30:05;46.97;;;21.52;;
73585;SDS011;61865;50.232;18.614;2022-12-18T05:32:29;44.55;;;21.77;;
73585;SDS011;61865;50.232;18.614;2022-12-18T05:34:51;47.67;;;23.13;;
73585;SDS011;61865;50.232;18.614;2022-12-18T05:37:13;54.85;;;22.55;;
73585;SDS011;61865;50.232;18.614;2022-12-18T05:39:35;45.65;;;22.45;;
73585;SDS011;61865;50.232;18.614;2022-12-18T05:41:57;50.10;;;23.58;;
73585;SDS011;61865;50.232;18.614;2022-12-18T05:44:18;47.92;;;22.08;;
73585;SDS011;61865;50.232;18.614;2022-12-18T05:46:40;56.40;;;22.88;;
73585;SDS011;61865;50.232;18.614;2022-12-18T05:49:03;48.95;;;22.02;;
73585;SDS011;61865;50.232;18.614;2022-12-18T05:51:25;51.25;;;21.73;;
73585;SDS011;61865;50.232;18.614;2022-12-18T05:53:47;50.25;;;22.63;;
73585;SDS011;61865;50.232;18.614;2022-12-18T05:56:10;47.42;;;21.58;;
73585;SDS011;61865;50.232;18.614;2022-12-18T05:58:33;59.03;;;24.17;;
73585;SDS011;61865;50.232;18.614;2022-12-18T06:00:55;46.92;;;22.00;;
73585;SDS011;61865;50.232;18.614;2022-12-18T06:03:17;49.95;;;23.40;;
73585;SDS011;61865;50.232;18.614;2022-12-18T06:05:41;47.60;;;22.70;;
73585;SDS011;61865;50.232;18.614;2022-12-18T06:08:04;44.33;;;22.50;;
73585;SDS011;61865;50.232;18.614;2022-12-18T06:10:26;52.88;;;21.98;;
73585;SDS011;61865;50.232;18.614;2022-12-18T06:12:48;51.33;;;22.45;;
73585;SDS011;61865;50.232;18.614;2022-12-18T06:15:10;52.40;;;21.42;;
73585;SDS011;61865;50.232;18.614;2022-12-18T06:17:32;42.20;;;20.27;;
73585;SDS011;61865;50.232;18.614;2022-12-18T06:19:54;45.75;;;19.95;;
73585;SDS011;61865;50.232;18.614;2022-12-18T06:22:18;49.35;;;21.45;;
73585;SDS011;61865;50.232;18.614;2022-12-18T06:24:40;44.95;;;21.15;;
73585;SDS011;61865;50.232;18.614;2022-12-18T06:27:01;45.38;;;21.70;;
73585;SDS011;61865;50.232;18.614;2022-12-18T06:29:23;41.92;;;20.30;;
73585;SDS011;61865;50.232;18.614;2022-12-18T06:31:45;44.05;;;20.88;;
73585;SDS011;61865;50.232;18.614;2022-12-18T06:34:07;43.28;;;20.17;;
73585;SDS011;61865;50.232;18.614;2022-12-18T06:36:29;51.92;;;21.90;;
73585;SDS011;61865;50.232;18.614;2022-12-18T06:38:52;43.58;;;21.27;;
73585;SDS011;61865;50.232;18.614;2022-12-18T06:41:16;46.65;;;21.52;;
73585;SDS011;61865;50.232;18.614;2022-12-18T06:43:39;46.55;;;20.45;;
73585;SDS011;61865;50.232;18.614;2022-12-18T06:46:01;39.47;;;20.73;;
73585;SDS011;61865;50.232;18.614;2022-12-18T06:48:24;48.15;;;21.70;;
73585;SDS011;61865;50.232;18.614;2022-12-18T06:50:46;47.95;;;21.92;;
73585;SDS011;61865;50.232;18.614;2022-12-18T06:53:08;46.55;;;21.60;;
73585;SDS011;61865;50.232;18.614;2022-12-18T06:55:32;46.35;;;21.73;;
73585;SDS011;61865;50.232;18.614;2022-12-18T06:57:53;51.47;;;22.20;;
73585;SDS011;61865;50.232;18.614;2022-12-18T07:00:15;47.45;;;21.45;;
73585;SDS011;61865;50.232;18.614;2022-12-18T07:02:38;47.50;;;24.55;;
73585;SDS011;61865;50.232;18.614;2022-12-18T07:05:00;52.25;;;22.90;;
73585;SDS011;61865;50.232;18.614;2022-12-18T07:07:22;47.13;;;21.63;;
73585;SDS011;61865;50.232;18.614;2022-12-18T07:09:44;56.95;;;23.48;;
73585;SDS011;61865;50.232;18.614;2022-12-18T07:12:07;47.60;;;21.05;;
73585;SDS011;61865;50.232;18.614;2022-12-18T07:14:29;48.20;;;22.23;;
73585;SDS011;61865;50.232;18.614;2022-12-18T07:16:51;48.20;;;21.98;;
73585;SDS011;61865;50.232;18.614;2022-12-18T07:19:13;48.53;;;22.50;;
73585;SDS011;61865;50.232;18.614;2022-12-18T07:21:35;46.63;;;22.38;;
73585;SDS011;61865;50.232;18.614;2022-12-18T07:23:57;47.75;;;23.05;;
73585;SDS011;61865;50.232;18.614;2022-12-18T07:26:19;54.25;;;23.55;;
73585;SDS011;61865;50.232;18.614;2022-12-18T07:28:43;55.92;;;26.05;;
73585;SDS011;61865;50.232;18.614;2022-12-18T07:31:06;51.35;;;25.25;;
73585;SDS011;61865;50.232;18.614;2022-12-18T07:33:30;58.58;;;25.88;;
73585;SDS011;61865;50.232;18.614;2022-12-18T07:35:52;58.17;;;26.85;;
73585;SDS011;61865;50.232;18.614;2022-12-18T07:38:14;48.83;;;23.33;;
73585;SDS011;61865;50.232;18.614;2022-12-18T07:40:36;55.78;;;25.35;;
73585;SDS011;61865;50.232;18.614;2022-12-18T07:42:58;56.72;;;25.13;;
73585;SDS011;61865;50.232;18.614;2022-12-18T07:45:21;58.35;;;27.17;;
73585;SDS011;61865;50.232;18.614;2022-12-18T07:47:43;56.33;;;29.30;;
73585;SDS011;61865;50.232;18.614;2022-12-18T07:50:05;63.92;;;30.10;;
73585;SDS011;61865;50.232;18.614;2022-12-18T07:52:27;67.57;;;31.30;;
73585;SDS011;61865;50.232;18.614;2022-12-18T07:54:49;61.88;;;30.85;;
73585;SDS011;61865;50.232;18.614;2022-12-18T07:57:11;62.35;;;30.23;;
73585;SDS011;61865;50.232;18.614;2022-12-18T07:59:33;60.28;;;27.85;;
73585;SDS011;61865;50.232;18.614;2022-12-18T08:01:56;51.20;;;23.95;;
73585;SDS011;61865;50.232;18.614;2022-12-18T08:04:18;58.53;;;27.13;;
73585;SDS011;61865;50.232;18.614;2022-12-18T08:06:40;61.63;;;28.52;;
73585;SDS011;61865;50.232;18.614;2022-12-18T08:09:02;64.53;;;27.73;;
73585;SDS011;61865;50.232;18.614;2022-12-18T08:11:25;68.15;;;28.45;;
73585;SDS011;61865;50.232;18.614;2022-12-18T08:13:47;48.40;;;23.88;;
73585;SDS011;61865;50.232;18.614;2022-12-18T08:16:09;56.35;;;24.05;;
73585;SDS011;61865;50.232;18.614;2022-12-18T08:18:33;52.38;;;25.35;;
73585;SDS011;61865;50.232;18.614;2022-12-18T08:20:55;54.50;;;23.40;;
73585;SDS011;61865;50.232;18.614;2022-12-18T08:23:17;48.28;;;24.48;;
73585;SDS011;61865;50.232;18.614;2022-12-18T08:25:39;51.95;;;24.58;;
73585;SDS011;61865;50.232;18.614;2022-12-18T08:28:01;52.42;;;26.30;;
73585;SDS011;61865;50.232;18.614;2022-12-18T08:30:23;57.47;;;26.08;;
73585;SDS011;61865;50.232;18.614;2022-12-18T08:32:45;56.03;;;27.27;;
73585;SDS011;61865;50.232;18.614;2022-12-18T08:35:08;53.58;;;25.73;;
73585;SDS011;61865;50.232;18.614;2022-12-18T08:37:32;50.90;;;25.08;;
73585;SDS011;61865;50.232;18.614;2022-12-18T08:39:53;56.25;;;24.88;;
73585;SDS011;61865;50.232;18.614;2022-12-18T08:42:15;50.03;;;24.02;;
73585;SDS011;61865;50.232;18.614;2022-12-18T08:44:55;54.33;;;22.98;;
73585;SDS011;61865;50.232;18.614;2022-12-18T08:47:17;54.83;;;24.45;;
73585;SDS011;61865;50.232;18.614;2022-12-18T08:49:39;58.38;;;24.25;;
73585;SDS011;61865;50.232;18.614;2022-12-18T08:52:02;51.22;;;24.48;;
73585;SDS011;61865;50.232;18.614;2022-12-18T08:54:24;49.55;;;23.63;;
73585;SDS011;61865;50.232;18.614;2022-12-18T08:56:47;52.35;;;22.73;;
73585;SDS011;61865;50.232;18.614;2022-12-18T08:59:09;42.97;;;21.75;;
73585;SDS011;61865;50.232;18.614;2022-12-18T09:01:31;52.28;;;20.63;;
73585;SDS011;61865;50.232;18.614;2022-12-18T09:03:53;50.95;;;22.50;;
73585;SDS011;61865;50.232;18.614;2022-12-18T09:06:15;53.20;;;23.42;;
73585;SDS011;61865;50.232;18.614;2022-12-18T09:08:39;44.33;;;20.92;;
73585;SDS011;61865;50.232;18.614;2022-12-18T09:11:01;42.13;;;18.70;;
73585;SDS011;61865;50.232;18.614;2022-12-18T09:13:23;43.83;;;19.27;;
73585;SDS011;61865;50.232;18.614;2022-12-18T09:15:54;39.58;;;20.70;;
73585;SDS011;61865;50.232;18.614;2022-12-18T09:18:17;43.00;;;21.02;;
73585;SDS011;61865;50.232;18.614;2022-12-18T09:20:40;39.78;;;19.55;;
73585;SDS011;61865;50.232;18.614;2022-12-18T09:23:02;43.22;;;18.15;;
73585;SDS011;61865;50.232;18.614;2022-12-18T09:25:26;39.67;;;18.60;;
73585;SDS011;61865;50.232;18.614;2022-12-18T09:27:51;39.50;;;19.17;;
73585;SDS011;61865;50.232;18.614;2022-12-18T09:30:13;45.58;;;18.83;;
73585;SDS011;61865;50.232;18.614;2022-12-18T09:32:35;38.13;;;18.65;;
73585;SDS011;61865;50.232;18.614;2022-12-18T09:34:57;37.67;;;19.10;;
73585;SDS011;61865;50.232;18.614;2022-12-18T09:37:19;42.03;;;20.00;;
73585;SDS011;61865;50.232;18.614;2022-12-18T09:39:41;38.88;;;19.02;;
73585;SDS011;61865;50.232;18.614;2022-12-18T09:42:04;46.55;;;21.60;;
73585;SDS011;61865;50.232;18.614;2022-12-18T09:44:28;41.17;;;19.42;;
73585;SDS011;61865;50.232;18.614;2022-12-18T09:46:59;38.33;;;20.92;;
73585;SDS011;61865;50.232;18.614;2022-12-18T09:49:28;39.70;;;19.95;;
73585;SDS011;61865;50.232;18.614;2022-12-18T09:51:52;42.08;;;20.33;;
73585;SDS011;61865;50.232;18.614;2022-12-18T09:54:18;42.30;;;20.20;;
73585;SDS011;61865;50.232;18.614;2022-12-18T09:56:44;45.72;;;20.70;;
73585;SDS011;61865;50.232;18.614;2022-12-18T09:59:09;39.42;;;18.10;;
73585;SDS011;61865;50.232;18.614;2022-12-18T10:01:40;41.47;;;19.73;;
73585;SDS011;61865;50.232;18.614;2022-12-18T10:04:02;43.75;;;20.58;;
73585;SDS011;61865;50.232;18.614;2022-12-18T10:06:25;44.17;;;19.13;;
73585;SDS011;61865;50.232;18.614;2022-12-18T10:08:54;40.72;;;19.38;;
73585;SDS011;61865;50.232;18.614;2022-12-18T10:11:26;40.30;;;16.88;;
73585;SDS011;61865;50.232;18.614;2022-12-18T10:13:56;36.85;;;18.30;;
73585;SDS011;61865;50.232;18.614;2022-12-18T10:16:25;38.40;;;18.48;;
73585;SDS011;61865;50.232;18.614;2022-12-18T10:19:01;31.73;;;16.73;;
73585;SDS011;61865;50.232;18.614;2022-12-18T10:21:39;37.35;;;17.77;;
73585;SDS011;61865;50.232;18.614;2022-12-18T10:24:09;35.70;;;18.35;;
73585;SDS011;61865;50.232;18.614;2022-12-18T10:26:38;40.70;;;19.13;;
73585;SDS011;61865;50.232;18.614;2022-12-18T10:29:03;46.60;;;20.15;;
73585;SDS011;61865;50.232;18.614;2022-12-18T10:31:30;41.00;;;19.13;;
73585;SDS011;61865;50.232;18.614;2022-12-18T10:33:53;40.67;;;18.40;;
73585;SDS011;61865;50.232;18.614;2022-12-18T10:36:15;41.17;;;19.83;;
73585;SDS011;61865;50.232;18.614;2022-12-18T10:38:37;45.72;;;20.50;;
73585;SDS011;61865;50.232;18.614;2022-12-18T10:41:00;41.55;;;19.90;;
73585;SDS011;61865;50.232;18.614;2022-12-18T10:43:24;44.85;;;20.83;;
73585;SDS011;61865;50.232;18.614;2022-12-18T10:45:58;44.08;;;19.85;;
73585;SDS011;61865;50.232;18.614;2022-12-18T10:48:28;40.03;;;18.85;;
73585;SDS011;61865;50.232;18.614;2022-12-18T10:50:51;48.35;;;21.73;;
73585;SDS011;61865;50.232;18.614;2022-12-18T10:53:16;44.20;;;20.90;;
73585;SDS011;61865;50.232;18.614;2022-12-18T10:55:41;41.85;;;19.55;;
73585;SDS011;61865;50.232;18.614;2022-12-18T10:58:13;43.20;;;20.63;;
73585;SDS011;61865;50.232;18.614;2022-12-18T11:00:42;45.30;;;21.05;;
73585;SDS011;61865;50.232;18.614;2022-12-18T11:03:07;46.55;;;20.05;;
73585;SDS011;61865;50.232;18.614;2022-12-18T11:06:00;37.78;;;18.65;;
73585;SDS011;61865;50.232;18.614;2022-12-18T11:08:24;35.25;;;17.92;;
73585;SDS011;61865;50.232;18.614;2022-12-18T11:10:46;39.85;;;18.27;;
73585;SDS011;61865;50.232;18.614;2022-12-18T11:13:09;40.88;;;18.58;;
73585;SDS011;61865;50.232;18.614;2022-12-18T11:15:39;46.55;;;21.98;;
73585;SDS011;61865;50.232;18.614;2022-12-18T11:18:02;42.65;;;19.70;;
73585;SDS011;61865;50.232;18.614;2022-12-18T11:20:30;50.90;;;21.27;;
73585;SDS011;61865;50.232;18.614;2022-12-18T11:22:56;57.20;;;21.77;;
73585;SDS011;61865;50.232;18.614;2022-12-18T11:25:20;42.83;;;20.95;;
73585;SDS011;61865;50.232;18.614;2022-12-18T11:27:46;42.22;;;20.73;;
73585;SDS011;61865;50.232;18.614;2022-12-18T11:30:20;40.35;;;20.20;;
73585;SDS011;61865;50.232;18.614;2022-12-18T11:32:43;47.25;;;21.27;;
73585;SDS011;61865;50.232;18.614;2022-12-18T11:35:11;41.30;;;20.50;;
73585;SDS011;61865;50.232;18.614;2022-12-18T11:37:39;48.85;;;21.02;;
73585;SDS011;61865;50.232;18.614;2022-12-18T11:40:06;44.70;;;21.85;;
73585;SDS011;61865;50.232;18.614;2022-12-18T11:42:35;43.92;;;21.50;;
73585;SDS011;61865;50.232;18.614;2022-12-18T11:45:03;48.15;;;22.52;;
73585;SDS011;61865;50.232;18.614;2022-12-18T11:47:42;49.10;;;21.52;;
73585;SDS011;61865;50.232;18.614;2022-12-18T11:50:12;49.28;;;23.17;;
73585;SDS011;61865;50.232;18.614;2022-12-18T11:52:37;52.25;;;22.52;;
73585;SDS011;61865;50.232;18.614;2022-12-18T11:55:07;50.40;;;22.98;;
73585;SDS011;61865;50.232;18.614;2022-12-18T11:57:34;57.75;;;24.38;;
73585;SDS011;61865;50.232;18.614;2022-12-18T12:00:02;61.50;;;23.98;;
73585;SDS011;61865;50.232;18.614;2022-12-18T12:02:43;55.50;;;23.83;;
73585;SDS011;61865;50.232;18.614;2022-12-18T12:05:23;49.08;;;23.77;;
73585;SDS011;61865;50.232;18.614;2022-12-18T12:07:57;50.63;;;23.17;;
73585;SDS011;61865;50.232;18.614;2022-12-18T12:10:27;48.72;;;23.15;;
73585;SDS011;61865;50.232;18.614;2022-12-18T12:13:01;59.55;;;22.00;;
73585;SDS011;61865;50.232;18.614;2022-12-18T12:15:33;55.35;;;23.17;;
73585;SDS011;61865;50.232;18.614;2022-12-18T12:18:05;50.90;;;22.80;;
73585;SDS011;61865;50.232;18.614;2022-12-18T12:23:05;53.13;;;23.05;;
73585;SDS011;61865;50.232;18.614;2022-12-18T12:25:36;49.78;;;23.05;;
73585;SDS011;61865;50.232;18.614;2022-12-18T12:28:06;48.03;;;21.42;;
73585;SDS011;61865;50.232;18.614;2022-12-18T12:30:39;48.53;;;22.80;;
73585;SDS011;61865;50.232;18.614;2022-12-18T12:33:14;44.97;;;22.10;;
73585;SDS011;61865;50.232;18.614;2022-12-18T12:35:46;45.63;;;21.35;;
73585;SDS011;61865;50.232;18.614;2022-12-18T12:38:15;52.05;;;24.88;;
73585;SDS011;61865;50.232;18.614;2022-12-18T12:40:43;64.05;;;25.65;;
73585;SDS011;61865;50.232;18.614;2022-12-18T12:43:11;71.90;;;32.10;;
73585;SDS011;61865;50.232;18.614;2022-12-18T12:45:44;64.85;;;27.15;;
73585;SDS011;61865;50.232;18.614;2022-12-18T12:48:11;65.15;;;29.70;;
73585;SDS011;61865;50.232;18.614;2022-12-18T12:50:38;64.85;;;28.45;;
73585;SDS011;61865;50.232;18.614;2022-12-18T12:53:01;59.63;;;26.25;;
73585;SDS011;61865;50.232;18.614;2022-12-18T12:55:29;62.60;;;27.45;;
73585;SDS011;61865;50.232;18.614;2022-12-18T12:57:55;60.13;;;25.70;;
73585;SDS011;61865;50.232;18.614;2022-12-18T13:00:21;57.28;;;26.55;;
73585;SDS011;61865;50.232;18.614;2022-12-18T13:02:47;62.38;;;27.95;;
73585;SDS011;61865;50.232;18.614;2022-12-18T13:05:17;65.68;;;28.83;;
73585;SDS011;61865;50.232;18.614;2022-12-18T13:07:46;61.30;;;28.25;;
73585;SDS011;61865;50.232;18.614;2022-12-18T13:10:18;57.40;;;27.65;;
73585;SDS011;61865;50.232;18.614;2022-12-18T13:12:53;63.85;;;27.52;;
73585;SDS011;61865;50.232;18.614;2022-12-18T13:15:20;53.63;;;26.50;;
73585;SDS011;61865;50.232;18.614;2022-12-18T13:17:43;63.70;;;30.02;;
73585;SDS011;61865;50.232;18.614;2022-12-18T13:20:06;69.85;;;29.33;;
73585;SDS011;61865;50.232;18.614;2022-12-18T13:22:32;61.60;;;29.08;;
73585;SDS011;61865;50.232;18.614;2022-12-18T13:24:56;67.30;;;28.92;;
73585;SDS011;61865;50.232;18.614;2022-12-18T13:36:02;56.15;;;26.15;;
73585;SDS011;61865;50.232;18.614;2022-12-18T13:38:33;64.05;;;29.13;;
73585;SDS011;61865;50.232;18.614;2022-12-18T13:40:56;67.68;;;29.17;;
73585;SDS011;61865;50.232;18.614;2022-12-18T13:43:32;61.90;;;30.08;;
73585;SDS011;61865;50.232;18.614;2022-12-18T13:51:11;57.33;;;26.58;;
73585;SDS011;61865;50.232;18.614;2022-12-18T13:53:39;65.20;;;27.85;;
73585;SDS011;61865;50.232;18.614;2022-12-18T13:56:05;64.45;;;28.95;;
73585;SDS011;61865;50.232;18.614;2022-12-18T13:58:27;65.13;;;30.55;;
73585;SDS011;61865;50.232;18.614;2022-12-18T14:00:49;63.33;;;29.73;;
73585;SDS011;61865;50.232;18.614;2022-12-18T14:03:16;65.60;;;29.88;;
73585;SDS011;61865;50.232;18.614;2022-12-18T14:05:40;69.82;;;32.92;;
73585;SDS011;61865;50.232;18.614;2022-12-18T14:08:08;75.30;;;32.42;;
73585;SDS011;61865;50.232;18.614;2022-12-18T14:10:33;71.07;;;32.50;;
73585;SDS011;61865;50.232;18.614;2022-12-18T14:13:02;71.70;;;30.75;;
73585;SDS011;61865;50.232;18.614;2022-12-18T14:15:31;68.45;;;30.77;;